createdAt,value
2024-03-19T00:00:55.092Z,92889.00
2024-03-19T00:01:55.122Z,92889.00
2024-03-19T00:02:55.159Z,92888.00
2024-03-19T00:03:55.215Z,92889.00
2024-03-19T00:04:55.257Z,92889.00
2024-03-19T00:05:55.303Z,92886.00
2024-03-19T00:06:55.357Z,92885.00
2024-03-19T00:07:55.402Z,92884.00
2024-03-19T00:08:55.452Z,92882.00
2024-03-19T00:09:55.512Z,92881.00
2024-03-19T00:10:55.556Z,92881.00
2024-03-19T00:11:55.621Z,92881.00
2024-03-19T00:12:55.655Z,92881.00
2024-03-19T00:13:55.717Z,92879.00
2024-03-19T00:14:55.755Z,92879.00
2024-03-19T00:15:55.811Z,92877.00
2024-03-19T00:16:55.854Z,92881.00
2024-03-19T00:17:55.898Z,92882.00
2024-03-19T00:18:55.952Z,92885.00
2024-03-19T00:19:55.995Z,92889.00
2024-03-19T00:20:56.035Z,92890.00
2024-03-19T00:21:56.095Z,92888.00
2024-03-19T00:22:56.140Z,92886.00
2024-03-19T00:23:56.192Z,92888.00
2024-03-19T00:24:56.241Z,92886.00
2024-03-19T00:25:56.291Z,92886.00
2024-03-19T00:26:56.344Z,92883.00
2024-03-19T00:27:56.384Z,92886.00
2024-03-19T00:28:56.443Z,92885.00
2024-03-19T00:29:56.512Z,92887.00
2024-03-19T00:30:56.532Z,92887.00
2024-03-19T00:31:56.593Z,92886.00
2024-03-19T00:32:56.646Z,92883.00
2024-03-19T00:33:56.691Z,92886.00
2024-03-19T00:34:56.735Z,92886.00
2024-03-19T00:35:56.791Z,92886.00
2024-03-19T00:36:56.851Z,92884.00
2024-03-19T00:37:56.897Z,92884.00
2024-03-19T00:38:56.961Z,92885.00
2024-03-19T00:39:57.006Z,92886.00
2024-03-19T00:40:57.066Z,92885.00
2024-03-19T00:41:57.111Z,92886.00
2024-03-19T00:42:57.159Z,92885.00
2024-03-19T00:43:57.224Z,92885.00
2024-03-19T00:44:57.268Z,92882.00
2024-03-19T00:45:57.314Z,92883.00
2024-03-19T00:46:57.367Z,92884.00
2024-03-19T00:47:57.425Z,92882.00
2024-03-19T00:48:57.502Z,92884.00
2024-03-19T00:49:57.537Z,92885.00
2024-03-19T00:50:57.591Z,92884.00
2024-03-19T00:51:57.645Z,92886.00
2024-03-19T00:52:57.691Z,92885.00
2024-03-19T00:53:57.761Z,92884.00
2024-03-19T00:54:57.806Z,92885.00
2024-03-19T00:55:57.876Z,92883.00
2024-03-19T00:56:57.920Z,92883.00
2024-03-19T00:57:57.970Z,92881.00
2024-03-19T00:58:58.028Z,92880.00
2024-03-19T00:59:58.099Z,92880.00
2024-03-19T01:00:58.144Z,92878.00
2024-03-19T01:01:58.199Z,92878.00
2024-03-19T01:02:58.252Z,92879.00
2024-03-19T01:03:58.307Z,92880.00
2024-03-19T01:04:58.367Z,92879.00
2024-03-19T01:05:58.424Z,92876.00
2024-03-19T01:06:58.494Z,92876.00
2024-03-19T01:07:58.544Z,92874.00
2024-03-19T01:08:58.600Z,92874.00
2024-03-19T01:09:58.663Z,92872.00
2024-03-19T01:10:59.282Z,92873.00
2024-03-19T01:11:58.783Z,92873.00
2024-03-19T01:12:58.847Z,92874.00
2024-03-19T01:13:58.894Z,92873.00
2024-03-19T01:14:58.953Z,92872.00
2024-03-19T01:15:59.015Z,92874.00
2024-03-19T01:16:59.073Z,92875.00
2024-03-19T01:17:59.149Z,92874.00
2024-03-19T01:18:59.196Z,92872.00
2024-03-19T01:19:59.258Z,92868.00
2024-03-19T01:20:59.313Z,92869.00
2024-03-19T01:21:59.375Z,92866.00
2024-03-19T01:22:59.424Z,92863.00
2024-03-19T01:23:59.494Z,92866.00
2024-03-19T01:24:59.540Z,92867.00
2024-03-19T01:25:59.600Z,92868.00
2024-03-19T01:26:59.661Z,92867.00
2024-03-19T01:27:59.728Z,92865.00
2024-03-19T01:28:59.789Z,92863.00
2024-03-19T01:29:59.852Z,92861.00
2024-03-19T01:30:59.903Z,92861.00
2024-03-19T01:31:59.962Z,92859.00
2024-03-19T01:33:00.039Z,92860.00
2024-03-19T01:34:00.083Z,92860.00
2024-03-19T01:35:00.172Z,92861.00
2024-03-19T01:36:00.209Z,92863.00
2024-03-19T01:37:00.273Z,92858.00
2024-03-19T01:38:00.356Z,92858.00
2024-03-19T01:39:00.402Z,92856.00
2024-03-19T01:40:00.486Z,92854.00
2024-03-19T01:41:00.521Z,92854.00
2024-03-19T01:42:00.576Z,92854.00
2024-03-19T01:43:01.275Z,92854.00
2024-03-19T01:44:00.697Z,92854.00
2024-03-19T01:45:00.773Z,92855.00
2024-03-19T01:46:00.815Z,92857.00
2024-03-19T01:47:00.897Z,92857.00
2024-03-19T01:48:00.932Z,92857.00
2024-03-19T01:49:00.994Z,92859.00
2024-03-19T01:50:01.039Z,92857.00
2024-03-19T01:51:01.100Z,92857.00
2024-03-19T01:52:01.155Z,92855.00
2024-03-19T01:53:01.217Z,92855.00
2024-03-19T01:54:01.272Z,92855.00
2024-03-19T01:55:01.319Z,92853.00
2024-03-19T01:56:01.380Z,92853.00
2024-03-19T01:57:01.439Z,92854.00
2024-03-19T01:58:01.504Z,92852.00
2024-03-19T01:59:01.560Z,92854.00
2024-03-19T02:00:01.662Z,92853.00
2024-03-19T02:01:01.680Z,92854.00
2024-03-19T02:02:01.743Z,92855.00
2024-03-19T02:03:01.801Z,92855.00
2024-03-19T02:04:01.867Z,92857.00
2024-03-19T02:05:01.916Z,92858.00
2024-03-19T02:06:01.992Z,92860.00
2024-03-19T02:07:02.044Z,92861.00
2024-03-19T02:08:02.100Z,92863.00
2024-03-19T02:09:02.178Z,92860.00
2024-03-19T02:10:02.217Z,92862.00
2024-03-19T02:11:02.276Z,92863.00
2024-03-19T02:12:02.337Z,92862.00
2024-03-19T02:13:02.413Z,92862.00
2024-03-19T02:14:02.455Z,92864.00
2024-03-19T02:15:02.528Z,92861.00
2024-03-19T02:16:02.566Z,92865.00
2024-03-19T02:17:02.624Z,92864.00
2024-03-19T02:18:02.680Z,92863.00
2024-03-19T02:19:02.746Z,92862.00
2024-03-19T02:20:02.803Z,92862.00
2024-03-19T02:21:02.864Z,92861.00
2024-03-19T02:22:02.929Z,92858.00
2024-03-19T02:23:02.981Z,92858.00
2024-03-19T02:24:03.048Z,92858.00
2024-03-19T02:25:03.117Z,92856.00
2024-03-19T02:26:03.190Z,92857.00
2024-03-19T02:27:03.225Z,92858.00
2024-03-19T02:28:03.290Z,92858.00
2024-03-19T02:29:03.346Z,92857.00
2024-03-19T02:30:03.397Z,92855.00
2024-03-19T02:31:03.453Z,92855.00
2024-03-19T02:32:03.535Z,92855.00
2024-03-19T02:33:03.574Z,92854.00
2024-03-19T02:34:03.630Z,92853.00
2024-03-19T02:35:03.699Z,92855.00
2024-03-19T02:36:03.750Z,92855.00
2024-03-19T02:37:03.807Z,92855.00
2024-03-19T02:38:03.874Z,92856.00
2024-03-19T02:39:03.934Z,92853.00
2024-03-19T02:40:04.001Z,92852.00
2024-03-19T02:41:04.045Z,92853.00
2024-03-19T02:42:04.105Z,92854.00
2024-03-19T02:43:04.156Z,92851.00
2024-03-19T02:44:04.240Z,92851.00
2024-03-19T02:45:04.303Z,92849.00
2024-03-19T02:46:04.339Z,92851.00
2024-03-19T02:47:04.404Z,92849.00
2024-03-19T02:48:04.463Z,92849.00
2024-03-19T02:49:04.533Z,92846.00
2024-03-19T02:50:04.596Z,92847.00
2024-03-19T02:51:04.650Z,92847.00
2024-03-19T02:52:04.731Z,92846.00
2024-03-19T02:53:04.776Z,92847.00
2024-03-19T02:54:04.869Z,92847.00
2024-03-19T02:55:04.959Z,92847.00
2024-03-19T02:56:05.064Z,92845.00
2024-03-19T02:57:05.093Z,92845.00
2024-03-19T02:58:05.090Z,92843.00
2024-03-19T02:59:05.159Z,92845.00
2024-03-19T03:00:05.234Z,92844.00
2024-03-19T03:01:05.312Z,92846.00
2024-03-19T03:02:05.361Z,92847.00
2024-03-19T03:03:05.424Z,92848.00
2024-03-19T03:04:05.492Z,92848.00
2024-03-19T03:05:05.541Z,92849.00
2024-03-19T03:06:05.603Z,92848.00
2024-03-19T03:07:05.669Z,92850.00
2024-03-19T03:08:05.733Z,92847.00
2024-03-19T03:09:05.809Z,92849.00
2024-03-19T03:10:05.855Z,92848.00
2024-03-19T03:11:05.904Z,92849.00
2024-03-19T03:12:05.963Z,92849.00
2024-03-19T03:13:05.993Z,92849.00
2024-03-19T03:14:06.029Z,92850.00
2024-03-19T03:15:06.085Z,92850.00
2024-03-19T03:16:06.121Z,92850.00
2024-03-19T03:17:06.173Z,92849.00
2024-03-19T03:18:06.224Z,92851.00
2024-03-19T03:19:06.393Z,92850.00
2024-03-19T03:20:06.358Z,92850.00
2024-03-19T03:21:06.395Z,92849.00
2024-03-19T03:22:06.448Z,92851.00
2024-03-19T03:23:06.507Z,92852.00
2024-03-19T03:24:06.583Z,92854.00
2024-03-19T03:25:06.688Z,92854.00
2024-03-19T03:26:06.692Z,92854.00
2024-03-19T03:27:06.760Z,92853.00
2024-03-19T03:28:06.816Z,92855.00
2024-03-19T03:29:06.890Z,92854.00
2024-03-19T03:30:06.952Z,92855.00
2024-03-19T03:31:07.027Z,92855.00
2024-03-19T03:32:07.091Z,92857.00
2024-03-19T03:33:07.160Z,92857.00
2024-03-19T03:34:07.230Z,92858.00
2024-03-19T03:35:07.287Z,92857.00
2024-03-19T03:36:07.349Z,92859.00
2024-03-19T03:37:13.294Z,92857.00
2024-03-19T03:38:08.437Z,92858.00
2024-03-19T03:39:07.465Z,92859.00
2024-03-19T03:40:07.480Z,92858.00
2024-03-19T03:41:07.494Z,92859.00
2024-03-19T03:42:07.502Z,92859.00
2024-03-19T03:43:09.146Z,92858.00
2024-03-19T03:44:07.523Z,92858.00
2024-03-19T03:45:07.556Z,92860.00
2024-03-19T03:46:07.571Z,92862.00
2024-03-19T03:47:07.588Z,92864.00
2024-03-19T03:48:07.605Z,92864.00
2024-03-19T03:49:07.630Z,92866.00
2024-03-19T03:50:07.650Z,92862.00
2024-03-19T03:51:07.670Z,92867.00
2024-03-19T03:52:07.725Z,92865.00
2024-03-19T03:53:07.784Z,92867.00
2024-03-19T03:54:07.850Z,92866.00
2024-03-19T03:55:07.923Z,92867.00
2024-03-19T03:56:07.974Z,92867.00
2024-03-19T03:57:08.036Z,92867.00
2024-03-19T03:58:08.099Z,92866.00
2024-03-19T03:59:08.162Z,92869.00
2024-03-19T04:00:08.216Z,92869.00
2024-03-19T04:01:08.279Z,92869.00
2024-03-19T04:02:08.340Z,92871.00
2024-03-19T04:03:08.419Z,92869.00
2024-03-19T04:04:08.475Z,92870.00
2024-03-19T04:05:08.534Z,92869.00
2024-03-19T04:06:08.605Z,92868.00
2024-03-19T04:07:08.665Z,92869.00
2024-03-19T04:08:11.264Z,92870.00
2024-03-19T04:09:08.929Z,92872.00
2024-03-19T04:10:08.975Z,92872.00
2024-03-19T04:11:09.042Z,92875.00
2024-03-19T04:12:09.095Z,92875.00
2024-03-19T04:13:09.157Z,92876.00
2024-03-19T04:14:09.229Z,92876.00
2024-03-19T04:15:09.293Z,92876.00
2024-03-19T04:16:09.357Z,92875.00
2024-03-19T04:17:09.418Z,92878.00
2024-03-19T04:18:09.496Z,92876.00
2024-03-19T04:19:09.548Z,92875.00
2024-03-19T04:20:09.613Z,92876.00
2024-03-19T04:21:09.681Z,92876.00
2024-03-19T04:22:09.764Z,92878.00
2024-03-19T04:23:09.825Z,92875.00
2024-03-19T04:24:09.900Z,92875.00
2024-03-19T04:25:09.955Z,92873.00
2024-03-19T04:26:10.026Z,92872.00
2024-03-19T04:27:10.092Z,92872.00
2024-03-19T04:28:10.164Z,92870.00
2024-03-19T04:29:10.239Z,92870.00
2024-03-19T04:30:10.307Z,92870.00
2024-03-19T04:31:10.371Z,92870.00
2024-03-19T04:32:10.441Z,92869.00
2024-03-19T04:33:10.507Z,92870.00
2024-03-19T04:34:10.566Z,92870.00
2024-03-19T04:35:10.634Z,92871.00
2024-03-19T04:36:10.703Z,92869.00
2024-03-19T04:37:10.770Z,92870.00
2024-03-19T04:38:10.844Z,92869.00
2024-03-19T04:39:10.905Z,92871.00
2024-03-19T04:40:10.966Z,92869.00
2024-03-19T04:41:11.020Z,92871.00
2024-03-19T04:42:11.083Z,92868.00
2024-03-19T04:43:11.157Z,92872.00
2024-03-19T04:44:11.217Z,92874.00
2024-03-19T04:45:11.279Z,92874.00
2024-03-19T04:46:11.343Z,92874.00
2024-03-19T04:47:11.409Z,92876.00
2024-03-19T04:48:11.469Z,92877.00
2024-03-19T04:49:11.537Z,92876.00
2024-03-19T04:50:11.594Z,92874.00
2024-03-19T04:51:11.657Z,92875.00
2024-03-19T04:52:11.715Z,92879.00
2024-03-19T04:53:11.747Z,92881.00
2024-03-19T04:54:11.796Z,92881.00
2024-03-19T04:55:11.840Z,92882.00
2024-03-19T04:56:11.867Z,92882.00
2024-03-19T04:57:11.975Z,92879.00
2024-03-19T04:58:19.302Z,92880.00
2024-03-19T04:59:19.305Z,92879.00
2024-03-19T05:00:19.276Z,92879.00
2024-03-19T05:01:19.284Z,92878.00
2024-03-19T05:02:19.299Z,92878.00
2024-03-19T05:03:19.271Z,92877.00
2024-03-19T05:04:19.275Z,92875.00
2024-03-19T05:05:19.257Z,92876.00
2024-03-19T05:06:19.248Z,92876.00
2024-03-19T05:07:19.272Z,92876.00
2024-03-19T05:08:19.317Z,92876.00
2024-03-19T05:09:19.359Z,92873.00
2024-03-19T05:10:19.380Z,92872.00
2024-03-19T05:11:19.417Z,92872.00
2024-03-19T05:12:19.467Z,92870.00
2024-03-19T05:13:19.506Z,92870.00
2024-03-19T05:14:19.534Z,92869.00
2024-03-19T05:15:19.568Z,92871.00
2024-03-19T05:16:19.610Z,92871.00
2024-03-19T05:17:19.643Z,92870.00
2024-03-19T05:18:19.930Z,92870.00
2024-03-19T05:19:19.724Z,92871.00
2024-03-19T05:20:19.760Z,92872.00
2024-03-19T05:21:19.812Z,92872.00
2024-03-19T05:22:19.843Z,92873.00
2024-03-19T05:23:19.890Z,92873.00
2024-03-19T05:24:19.920Z,92875.00
2024-03-19T05:25:19.955Z,92875.00
2024-03-19T05:26:19.989Z,92874.00
2024-03-19T05:27:20.031Z,92874.00
2024-03-19T05:28:20.066Z,92873.00
2024-03-19T05:29:20.107Z,92874.00
2024-03-19T05:30:20.221Z,92874.00
2024-03-19T05:31:20.176Z,92874.00
2024-03-19T05:32:20.209Z,92876.00
2024-03-19T05:33:20.250Z,92877.00
2024-03-19T05:34:20.285Z,92876.00
2024-03-19T05:35:20.335Z,92877.00
2024-03-19T05:36:20.355Z,92874.00
2024-03-19T05:37:20.403Z,92878.00
2024-03-19T05:38:20.447Z,92878.00
2024-03-19T05:39:20.476Z,92879.00
2024-03-19T05:40:20.514Z,92879.00
2024-03-19T05:41:20.570Z,92882.00
2024-03-19T05:42:20.584Z,92882.00
2024-03-19T05:43:20.620Z,92884.00
2024-03-19T05:44:20.663Z,92882.00
2024-03-19T05:45:21.429Z,92885.00
2024-03-19T05:46:20.721Z,92887.00
2024-03-19T05:47:20.758Z,92886.00
2024-03-19T05:48:20.804Z,92888.00
2024-03-19T05:49:20.873Z,92893.00
2024-03-19T05:50:20.910Z,92891.00
2024-03-19T05:51:20.962Z,92893.00
2024-03-19T05:52:21.007Z,92895.00
2024-03-19T05:53:24.421Z,92896.00
2024-03-19T05:54:21.048Z,92896.00
2024-03-19T05:55:21.042Z,92897.00
2024-03-19T05:56:21.045Z,92900.00
2024-03-19T05:57:21.048Z,92901.00
2024-03-19T05:58:21.047Z,92899.00
2024-03-19T05:59:21.042Z,92904.00
2024-03-19T06:00:21.043Z,92903.00
2024-03-19T06:01:21.038Z,92905.00
2024-03-19T06:02:21.035Z,92908.00
2024-03-19T06:03:21.022Z,92908.00
2024-03-19T06:04:21.020Z,92908.00
2024-03-19T06:05:21.020Z,92909.00
2024-03-19T06:06:21.009Z,92910.00
2024-03-19T06:07:21.020Z,92909.00
2024-03-19T06:08:20.998Z,92909.00
2024-03-19T06:09:20.998Z,92908.00
2024-03-19T06:10:21.003Z,92911.00
2024-03-19T06:11:20.976Z,92910.00
2024-03-19T06:12:20.973Z,92910.00
2024-03-19T06:13:20.972Z,92913.00
2024-03-19T06:14:20.965Z,92912.00
2024-03-19T06:15:21.025Z,92911.00
2024-03-19T06:16:20.949Z,92910.00
2024-03-19T06:17:20.940Z,92912.00
2024-03-19T06:18:20.935Z,92913.00
2024-03-19T06:19:26.146Z,92911.00
2024-03-19T06:20:21.931Z,92913.00
2024-03-19T06:21:20.921Z,92913.00
2024-03-19T06:22:20.921Z,92912.00
2024-03-19T06:23:20.915Z,92913.00
2024-03-19T06:24:20.899Z,92916.00
2024-03-19T06:25:20.895Z,92917.00
2024-03-19T06:26:20.911Z,92917.00
2024-03-19T06:27:20.893Z,92920.00
2024-03-19T06:28:20.879Z,92920.00
2024-03-19T06:29:20.875Z,92920.00
2024-03-19T06:30:20.910Z,92920.00
2024-03-19T06:31:20.946Z,92918.00
2024-03-19T06:32:21.002Z,92922.00
2024-03-19T06:33:21.035Z,92923.00
2024-03-19T06:34:21.105Z,92923.00
2024-03-19T06:35:21.143Z,92923.00
2024-03-19T06:36:21.177Z,92924.00
2024-03-19T06:37:21.218Z,92924.00
2024-03-19T06:38:21.257Z,92923.00
2024-03-19T06:39:21.302Z,92922.00
2024-03-19T06:40:21.436Z,92924.00
2024-03-19T06:41:21.391Z,92922.00
2024-03-19T06:42:21.433Z,92923.00
2024-03-19T06:43:21.471Z,92922.00
2024-03-19T06:44:21.526Z,92925.00
2024-03-19T06:45:21.555Z,92927.00
2024-03-19T06:46:21.596Z,92927.00
2024-03-19T06:47:21.634Z,92928.00
2024-03-19T06:48:21.715Z,92928.00
2024-03-19T06:49:21.731Z,92928.00
2024-03-19T06:50:21.777Z,92929.00
2024-03-19T06:51:21.818Z,92929.00
2024-03-19T06:52:21.863Z,92929.00
2024-03-19T06:53:21.905Z,92931.00
2024-03-19T06:54:21.950Z,92930.00
2024-03-19T06:55:21.995Z,92928.00
2024-03-19T06:56:22.035Z,92929.00
2024-03-19T06:57:22.070Z,92927.00
2024-03-19T06:58:22.113Z,92927.00
2024-03-19T06:59:22.169Z,92927.00
2024-03-19T07:00:22.180Z,92926.00
2024-03-19T07:01:22.237Z,92926.00
2024-03-19T07:02:22.263Z,92929.00
2024-03-19T07:03:22.304Z,92930.00
2024-03-19T07:04:22.338Z,92931.00
2024-03-19T07:05:22.380Z,92932.00
2024-03-19T07:06:22.409Z,92933.00
2024-03-19T07:07:22.446Z,92935.00
2024-03-19T07:08:22.486Z,92936.00
2024-03-19T07:09:22.518Z,92936.00
2024-03-19T07:10:22.545Z,92937.00
2024-03-19T07:11:22.591Z,92935.00
2024-03-19T07:12:22.612Z,92934.00
2024-03-19T07:13:22.649Z,92935.00
2024-03-19T07:14:22.672Z,92935.00
2024-03-19T07:15:22.698Z,92936.00
2024-03-19T07:16:22.725Z,92934.00
2024-03-19T07:17:24.135Z,92934.00
2024-03-19T07:18:22.791Z,92937.00
2024-03-19T07:19:22.822Z,92937.00
2024-03-19T07:20:22.844Z,92938.00
2024-03-19T07:21:22.878Z,92938.00
2024-03-19T07:22:22.913Z,92937.00
2024-03-19T07:23:22.933Z,92936.00
2024-03-19T07:24:23.021Z,92932.00
2024-03-19T07:25:22.993Z,92932.00
2024-03-19T07:26:23.015Z,92929.00
2024-03-19T07:27:23.029Z,92930.00
2024-03-19T07:28:23.055Z,92928.00
2024-03-19T07:29:23.069Z,92925.00
2024-03-19T07:30:23.096Z,92928.00
2024-03-19T07:31:23.117Z,92926.00
2024-03-19T07:32:23.130Z,92926.00
2024-03-19T07:33:23.152Z,92925.00
2024-03-19T07:34:23.170Z,92927.00
2024-03-19T07:35:23.185Z,92926.00
2024-03-19T07:36:23.265Z,92926.00
2024-03-19T07:37:23.217Z,92928.00
2024-03-19T07:38:23.242Z,92928.00
2024-03-19T07:39:23.270Z,92929.00
2024-03-19T07:40:23.271Z,92931.00
2024-03-19T07:41:23.284Z,92931.00
2024-03-19T07:42:23.350Z,92932.00
2024-03-19T07:43:23.274Z,92930.00
2024-03-19T07:44:23.348Z,92932.00
2024-03-19T07:45:23.272Z,92931.00
2024-03-19T07:46:23.267Z,92934.00
2024-03-19T07:47:23.374Z,92934.00
2024-03-19T07:48:23.279Z,92936.00
2024-03-19T07:49:23.265Z,92936.00
2024-03-19T07:50:23.256Z,92934.00
2024-03-19T07:51:23.245Z,92933.00
2024-03-19T07:52:23.249Z,92932.00
2024-03-19T07:53:23.207Z,92930.00
2024-03-19T07:54:23.308Z,92929.00
2024-03-19T07:55:23.190Z,92931.00
2024-03-19T07:56:23.194Z,92928.00
2024-03-19T07:57:23.208Z,92930.00
2024-03-19T07:58:23.217Z,92931.00
2024-03-19T07:59:23.236Z,92928.00
2024-03-19T08:00:23.261Z,92929.00
2024-03-19T08:01:23.292Z,92930.00
2024-03-19T08:02:23.417Z,92930.00
2024-03-19T08:03:23.415Z,92933.00
2024-03-19T08:04:23.449Z,92931.00
2024-03-19T08:05:24.489Z,92932.00
2024-03-19T08:06:23.534Z,92927.00
2024-03-19T08:07:23.576Z,92928.00
2024-03-19T08:08:23.617Z,92932.00
2024-03-19T08:09:23.654Z,92930.00
2024-03-19T08:10:23.700Z,92931.00
2024-03-19T08:11:23.712Z,92932.00
2024-03-19T08:12:26.056Z,92930.00
2024-03-19T08:13:23.722Z,92929.00
2024-03-19T08:14:23.705Z,92930.00
2024-03-19T08:15:23.686Z,92931.00
2024-03-19T08:16:23.673Z,92932.00
2024-03-19T08:17:23.673Z,92931.00
2024-03-19T08:18:23.638Z,92930.00
2024-03-19T08:19:23.622Z,92930.00
2024-03-19T08:20:23.606Z,92929.00
2024-03-19T08:21:23.576Z,92930.00
2024-03-19T08:22:23.560Z,92930.00
2024-03-19T08:23:23.548Z,92930.00
2024-03-19T08:24:23.523Z,92932.00
2024-03-19T08:25:23.506Z,92936.00
2024-03-19T08:26:23.485Z,92934.00
2024-03-19T08:27:23.465Z,92937.00
2024-03-19T08:28:25.048Z,92935.00
2024-03-19T08:29:23.416Z,92936.00
2024-03-19T08:30:23.412Z,92935.00
2024-03-19T08:31:23.379Z,92934.00
2024-03-19T08:32:23.355Z,92934.00
2024-03-19T08:33:23.334Z,92934.00
2024-03-19T08:34:23.316Z,92933.00
2024-03-19T08:35:23.287Z,92932.00
2024-03-19T08:36:23.278Z,92934.00
2024-03-19T08:37:23.256Z,92934.00
2024-03-19T08:38:23.237Z,92931.00
2024-03-19T08:39:23.225Z,92931.00
2024-03-19T08:40:23.204Z,92934.00
2024-03-19T08:41:23.180Z,92935.00
2024-03-19T08:42:23.164Z,92935.00
2024-03-19T08:43:23.132Z,92933.00
2024-03-19T08:44:23.112Z,92935.00
2024-03-19T08:45:23.093Z,92936.00
2024-03-19T08:46:23.069Z,92935.00
2024-03-19T08:47:23.102Z,92938.00
2024-03-19T08:48:23.034Z,92934.00
2024-03-19T08:49:23.003Z,92937.00
2024-03-19T08:50:22.980Z,92936.00
2024-03-19T08:51:22.966Z,92939.00
2024-03-19T08:52:22.997Z,92937.00
2024-03-19T08:53:23.042Z,92938.00
2024-03-19T08:54:23.094Z,92939.00
2024-03-19T08:55:23.135Z,92936.00
2024-03-19T08:56:23.178Z,92935.00
2024-03-19T08:57:23.235Z,92934.00
2024-03-19T08:58:23.260Z,92931.00
2024-03-19T08:59:23.309Z,92931.00
2024-03-19T09:00:23.340Z,92930.00
2024-03-19T09:01:23.378Z,92929.00
2024-03-19T09:02:23.425Z,92928.00
2024-03-19T09:03:23.492Z,92930.00
2024-03-19T09:04:23.508Z,92928.00
2024-03-19T09:05:25.627Z,92930.00
2024-03-19T09:06:23.569Z,92928.00
2024-03-19T09:07:23.603Z,92930.00
2024-03-19T09:08:23.634Z,92928.00
2024-03-19T09:09:23.666Z,92927.00
2024-03-19T09:10:23.705Z,92926.00
2024-03-19T09:11:23.720Z,92927.00
2024-03-19T09:12:23.764Z,92926.00
2024-03-19T09:13:23.784Z,92924.00
2024-03-19T09:14:23.819Z,92925.00
2024-03-19T09:15:23.844Z,92925.00
2024-03-19T09:16:23.888Z,92924.00
2024-03-19T09:17:23.901Z,92923.00
2024-03-19T09:18:23.930Z,92924.00
2024-03-19T09:19:23.949Z,92924.00
2024-03-19T09:20:23.973Z,92923.00
2024-03-19T09:21:24.006Z,92923.00
2024-03-19T09:22:24.027Z,92923.00
2024-03-19T09:23:24.038Z,92921.00
2024-03-19T09:24:24.064Z,92918.00
2024-03-19T09:25:24.083Z,92920.00
2024-03-19T09:26:24.094Z,92917.00
2024-03-19T09:27:24.109Z,92917.00
2024-03-19T09:28:24.131Z,92916.00
2024-03-19T09:29:24.157Z,92916.00
2024-03-19T09:30:24.156Z,92914.00
2024-03-19T09:31:24.169Z,92917.00
2024-03-19T09:32:24.181Z,92917.00
2024-03-19T09:33:24.200Z,92916.00
2024-03-19T09:34:24.199Z,92915.00
2024-03-19T09:35:24.208Z,92917.00
2024-03-19T09:36:24.213Z,92917.00
2024-03-19T09:37:24.217Z,92916.00
2024-03-19T09:38:24.256Z,92913.00
2024-03-19T09:39:24.250Z,92913.00
2024-03-19T09:40:24.254Z,92910.00
2024-03-19T09:41:24.255Z,92908.00
2024-03-19T09:42:24.266Z,92909.00
2024-03-19T09:43:24.273Z,92910.00
2024-03-19T09:44:24.284Z,92908.00
2024-03-19T09:45:24.297Z,92909.00
2024-03-19T09:46:24.303Z,92909.00
2024-03-19T09:47:24.314Z,92905.00
2024-03-19T09:48:24.319Z,92907.00
2024-03-19T09:49:24.324Z,92905.00
2024-03-19T09:50:24.348Z,92903.00
2024-03-19T09:51:24.354Z,92903.00
2024-03-19T09:52:24.363Z,92903.00
2024-03-19T09:53:24.389Z,92900.00
2024-03-19T09:54:24.389Z,92898.00
2024-03-19T09:55:24.402Z,92899.00
2024-03-19T09:56:24.433Z,92898.00
2024-03-19T09:57:24.426Z,92898.00
2024-03-19T09:58:24.435Z,92899.00
2024-03-19T09:59:24.450Z,92897.00
2024-03-19T10:00:24.457Z,92897.00
2024-03-19T10:01:24.534Z,92896.00
2024-03-19T10:02:24.483Z,92894.00
2024-03-19T10:03:24.515Z,92891.00
2024-03-19T10:04:24.515Z,92890.00
2024-03-19T10:05:24.573Z,92889.00
2024-03-19T10:06:24.518Z,92888.00
2024-03-19T10:07:24.531Z,92888.00
2024-03-19T10:08:24.551Z,92886.00
2024-03-19T10:09:24.557Z,92886.00
2024-03-19T10:10:24.583Z,92883.00
2024-03-19T10:11:24.674Z,92882.00
2024-03-19T10:12:24.579Z,92878.00
2024-03-19T10:13:24.595Z,92880.00
2024-03-19T10:14:24.613Z,92880.00
2024-03-19T10:15:24.621Z,92878.00
2024-03-19T10:16:24.625Z,92880.00
2024-03-19T10:17:24.649Z,92879.00
2024-03-19T10:18:24.656Z,92877.00
2024-03-19T10:19:24.656Z,92878.00
2024-03-19T10:20:25.548Z,92876.00
2024-03-19T10:21:24.673Z,92876.00
2024-03-19T10:22:24.686Z,92875.00
2024-03-19T10:23:24.712Z,92875.00
2024-03-19T10:24:24.725Z,92873.00
2024-03-19T10:25:24.724Z,92873.00
2024-03-19T10:26:24.743Z,92874.00
2024-03-19T10:27:24.755Z,92874.00
2024-03-19T10:28:24.774Z,92872.00
2024-03-19T10:29:24.768Z,92871.00
2024-03-19T10:30:24.811Z,92872.00
2024-03-19T10:31:24.808Z,92870.00
2024-03-19T10:32:26.480Z,92872.00
2024-03-19T10:33:24.833Z,92869.00
2024-03-19T10:34:24.832Z,92867.00
2024-03-19T10:35:24.833Z,92865.00
2024-03-19T10:36:24.853Z,92867.00
2024-03-19T10:37:24.862Z,92864.00
2024-03-19T10:38:32.717Z,92864.00
2024-03-19T10:39:25.873Z,92860.00
2024-03-19T10:40:24.857Z,92861.00
2024-03-19T10:41:24.845Z,92859.00
2024-03-19T10:42:24.811Z,92857.00
2024-03-19T10:43:24.807Z,92859.00
2024-03-19T10:44:24.783Z,92856.00
2024-03-19T10:45:24.777Z,92856.00
2024-03-19T10:46:24.754Z,92856.00
2024-03-19T10:47:24.788Z,92856.00
2024-03-19T10:48:24.717Z,92854.00
2024-03-19T10:49:24.708Z,92854.00
2024-03-19T10:50:24.695Z,92850.00
2024-03-19T10:51:24.685Z,92850.00
2024-03-19T10:52:24.673Z,92848.00
2024-03-19T10:53:24.666Z,92850.00
2024-03-19T10:54:24.684Z,92850.00
2024-03-19T10:55:24.647Z,92848.00
2024-03-19T10:56:24.677Z,92850.00
2024-03-19T10:57:24.748Z,92848.00
2024-03-19T10:58:24.753Z,92849.00
2024-03-19T10:59:24.766Z,92846.00
2024-03-19T11:00:24.800Z,92848.00
2024-03-19T11:01:24.849Z,92845.00
2024-03-19T11:02:24.870Z,92846.00
2024-03-19T11:03:24.907Z,92842.00
2024-03-19T11:04:24.944Z,92842.00
2024-03-19T11:05:24.996Z,92843.00
2024-03-19T11:06:25.014Z,92841.00
2024-03-19T11:07:25.053Z,92839.00
2024-03-19T11:08:25.093Z,92843.00
2024-03-19T11:09:25.137Z,92840.00
2024-03-19T11:10:25.186Z,92836.00
2024-03-19T11:11:25.222Z,92836.00
2024-03-19T11:12:25.266Z,92832.00
2024-03-19T11:13:25.315Z,92829.00
2024-03-19T11:14:25.353Z,92828.00
2024-03-19T11:15:25.410Z,92826.00
2024-03-19T11:16:25.449Z,92825.00
2024-03-19T11:17:25.542Z,92822.00
2024-03-19T11:18:25.538Z,92823.00
2024-03-19T11:19:25.587Z,92822.00
2024-03-19T11:20:25.637Z,92819.00
2024-03-19T11:21:25.684Z,92819.00
2024-03-19T11:22:25.716Z,92820.00
2024-03-19T11:23:25.760Z,92817.00
2024-03-19T11:24:25.807Z,92820.00
2024-03-19T11:25:25.858Z,92820.00
2024-03-19T11:26:25.902Z,92818.00
2024-03-19T11:27:25.975Z,92819.00
2024-03-19T11:28:26.009Z,92817.00
2024-03-19T11:29:26.076Z,92814.00
2024-03-19T11:30:26.135Z,92815.00
2024-03-19T11:31:26.141Z,92815.00
2024-03-19T11:32:26.185Z,92815.00
2024-03-19T11:33:26.234Z,92816.00
2024-03-19T11:34:26.291Z,92814.00
2024-03-19T11:35:26.325Z,92813.00
2024-03-19T11:36:26.378Z,92811.00
2024-03-19T11:37:26.430Z,92811.00
2024-03-19T11:38:26.486Z,92812.00
2024-03-19T11:39:26.531Z,92811.00
2024-03-19T11:40:26.576Z,92809.00
2024-03-19T11:41:32.821Z,92807.00
2024-03-19T11:42:27.613Z,92811.00
2024-03-19T11:43:26.601Z,92809.00
2024-03-19T11:44:26.588Z,92809.00
2024-03-19T11:45:26.569Z,92808.00